Terminal Aerodrome Forecast
Issued by NWS Sterling, VA

Current Version | Previous Version | Graphics & Text | Print | Product List | Glossary On
Versions: 1 2 3 4 5 6 7 8 9 10 11 12 13 14 15 16 17 18 19 20 21 22 23 24
711
FTUS41 KLWX 242048 AAA
TAFIAD
TAF AMD
KIAD 242048Z 2421/2524 19012G21KT P6SM BKN050 BKN250
     FM250000 17008KT P6SM SCT025
     FM250400 17008KT P6SM BKN015
     FM251500 17012KT P6SM VCSH BKN015
     FM251800 19013G21KT 1 1/2SM -SHRA VCTS OVC030CB
     FM252100 29017G26KT P6SM OVC045
     FM252300 29018G28KT P6SM SCT250=

USA.gov is the U.S. government's official web portal to all federal, state and local government web resources and services.